Time;durP1;ratioP1;P1;durP2;ratioP2;P2;SDS_P1;SDS_P2;PMS_P1;PMS_P2;Temp;Humidity;BMP_temperature;BMP_pressure;BME280_temperature;BME280_humidity;BME280_pressure;Samples;Min_cycle;Max_cycle;Signal;HPM_P1;HPM_P2
2022/10/28 00:01:35;;;;;;;;;42.00;34.67;;;;;11.52;100.00;101023.03;6275562;20;3604567;-71
2022/10/28 00:04:04;;;;;;;;;43.00;30.33;;;;;11.56;100.00;101009.38;6272805;20;3610688;-71
2022/10/28 00:06:36;;;;;;;;;38.00;30.67;;;;;11.76;100.00;101012.97;6303979;20;3601428;-71
2022/10/28 00:09:05;;;;;;;;;44.00;34.00;;;;;11.59;100.00;101014.63;6275206;20;3601326;-71
2022/10/28 00:11:39;;;;;;;;;35.00;31.33;;;;;11.52;100.00;101007.75;6273532;20;3589923;-71
2022/10/28 00:14:10;;;;;;;;;40.00;31.00;;;;;11.69;100.00;101004.34;6273646;20;3598240;-71
2022/10/28 00:16:39;;;;;;;;;47.67;33.00;;;;;11.67;100.00;100995.44;6304266;20;3631483;-71
2022/10/28 00:19:11;;;;;;;;;39.00;31.00;;;;;11.64;100.00;101006.34;6303579;20;3580700;-71
2022/10/28 00:21:43;;;;;;;;;46.33;34.00;;;;;11.57;100.00;101008.44;6270320;20;3603419;-71
2022/10/28 00:24:13;;;;;;;;;39.33;30.33;;;;;11.61;100.00;101001.09;6306390;20;3599210;-71
2022/10/28 00:26:43;;;;;;;;;34.00;28.33;;;;;11.63;100.00;101008.16;6267172;20;2860954;-71
2022/10/28 00:29:17;;;;;;;;;38.67;28.67;;;;;11.58;100.00;100996.72;6305279;20;3617104;-71
2022/10/28 00:31:46;;;;;;;;;34.33;27.00;;;;;11.71;100.00;100990.78;6273664;20;3578442;-72
2022/10/28 00:34:22;;;;;;;;;47.33;39.00;;;;;11.68;100.00;101004.38;6271501;20;3594061;-71
2022/10/28 00:36:52;;;;;;;;;51.67;37.33;;;;;11.65;100.00;100998.19;6301529;20;3628419;-71
2022/10/28 00:39:24;;;;;;;;;36.00;28.00;;;;;11.57;100.00;101007.56;6305356;20;3597244;-72
2022/10/28 00:42:02;;;;;;;;;36.33;30.33;;;;;11.58;100.00;101010.16;6270784;20;2869213;-71
2022/10/28 00:44:53;;;;;;;;;39.75;30.50;;;;;11.41;100.00;101007.38;6304955;20;3619004;-72
2022/10/28 00:47:36;;;;;;;;;39.00;29.33;;;;;11.55;100.00;101007.63;6304210;20;3619184;-72
2022/10/28 00:50:31;;;;;;;;;55.33;35.00;;;;;11.54;100.00;101011.25;6274140;20;3591977;-72
2022/10/28 00:53:08;;;;;;;;;44.00;29.00;;;;;11.42;100.00;101001.03;6268070;20;3613899;-71
2022/10/28 00:55:37;;;;;;;;;48.00;34.00;;;;;11.46;100.00;100991.91;6269177;20;3608749;-72
2022/10/28 00:58:08;;;;;;;;;45.67;34.00;;;;;11.32;100.00;100979.06;6301542;20;3612958;-71
2022/10/28 01:00:38;;;;;;;;;57.67;37.00;;;;;11.39;100.00;100993.09;6265169;20;3621165;-72
2022/10/28 01:03:08;;;;;;;;;42.00;31.67;;;;;11.49;100.00;101002.53;6266742;20;3621114;-71
2022/10/28 01:05:42;;;;;;;;;44.67;32.33;;;;;11.46;100.00;101002.66;6301085;20;3604045;-72
2022/10/28 01:08:12;;;;;;;;;37.67;33.00;;;;;11.44;100.00;101009.91;6269348;20;3602386;-72
2022/10/28 01:10:51;;;;;;;;;43.00;29.33;;;;;11.57;100.00;101005.75;6299716;20;3609699;-72
2022/10/28 01:14:10;;;;;;;;;37.67;31.00;;;;;11.33;100.00;100996.06;6301228;20;3603422;-71
2022/10/28 01:17:12;;;;;;;;;45.00;34.00;;;;;11.54;100.00;101000.50;6300107;20;3602318;-72
2022/10/28 01:20:12;;;;;;;;;47.67;32.00;;;;;11.41;100.00;100992.09;6268103;20;3610801;-71
2022/10/28 01:23:02;;;;;;;;;42.67;31.67;;;;;11.52;100.00;100990.75;6302221;20;3610670;-71
2022/10/28 01:25:55;;;;;;;;;38.33;34.00;;;;;11.45;100.00;100989.25;6274390;20;3588812;-72
2022/10/28 01:29:02;;;;;;;;;46.67;35.00;;;;;11.49;100.00;100994.44;6269048;20;3599281;-71
2022/10/28 01:31:50;;;;;;;;;34.67;30.67;;;;;11.37;100.00;100987.81;6301946;20;3601386;-72
2022/10/28 01:34:28;;;;;;;;;34.33;29.33;;;;;11.48;100.00;100989.13;6300093;20;2848171;-70
2022/10/28 01:37:37;;;;;;;;;38.33;30.00;;;;;11.47;100.00;100987.38;6301250;20;3598206;-72
2022/10/28 01:41:04;;;;;;;;;41.00;33.50;;;;;11.61;100.00;100988.53;6270001;20;2847234;-71
2022/10/28 01:43:55;;;;;;;;;47.67;35.33;;;;;11.40;100.00;100984.97;6272047;20;3620031;-71
2022/10/28 01:47:03;;;;;;;;;46.00;35.00;;;;;11.52;100.00;100977.31;6301720;20;3614944;-71
2022/10/28 01:50:09;;;;;;;;;38.67;28.00;;;;;11.46;100.00;100980.28;6267054;20;2869090;-72
2022/10/28 01:52:41;;;;;;;;;32.33;23.33;;;;;11.45;100.00;100984.75;6299873;20;3602403;-68
2022/10/28 01:55:20;;;;;;;;;32.33;27.67;;;;;11.34;100.00;100976.28;6268502;20;2854649;-71
2022/10/28 01:57:53;;;;;;;;;32.00;25.67;;;;;11.28;100.00;100976.56;6296082;20;2858657;-72
2022/10/28 02:00:22;;;;;;;;;31.67;24.33;;;;;11.48;100.00;100979.28;6300228;20;3594550;-71
2022/10/28 02:02:52;;;;;;;;;29.67;25.33;;;;;11.52;100.00;100969.22;6266692;20;2851528;-72
2022/10/28 02:05:47;;;;;;;;;35.33;29.33;;;;;11.32;100.00;100967.41;6300808;20;3591973;-71
2022/10/28 02:09:14;;;;;;;;;28.00;27.50;;;;;11.36;100.00;100974.41;6264538;20;2840999;-71
2022/10/28 02:12:00;;;;;;;;;30.33;25.00;;;;;11.36;100.00;100969.03;6263273;20;2844139;-71
2022/10/28 02:15:21;;;;;;;;;36.33;23.67;;;;;11.21;100.00;100975.97;6304264;20;3618037;-72
2022/10/28 02:18:16;;;;;;;;;27.00;20.50;;;;;11.13;100.00;100968.22;6301071;20;2474238;-71
2022/10/28 02:20:57;;;;;;;;;32.67;26.67;;;;;10.96;100.00;100966.28;6272036;20;2852370;-71
2022/10/28 02:23:50;;;;;;;;;27.50;22.00;;;;;10.96;100.00;100958.22;6300170;20;2483676;-71
2022/10/28 02:26:49;;;;;;;;;31.00;23.00;;;;;11.32;100.00;100967.41;6273204;20;2856619;-71
2022/10/28 02:29:44;;;;;;;;;31.33;22.00;;;;;11.16;100.00;100967.22;6307557;20;3598214;-71
2022/10/28 02:32:20;;;;;;;;;24.50;21.50;;;;;11.10;100.00;100973.75;6269770;20;2832692;-71
2022/10/28 02:34:57;;;;;;;;;23.50;17.50;;;;;11.25;100.00;100974.03;6273225;20;2833704;-71
2022/10/28 02:37:33;;;;;;;;;24.00;21.50;;;;;11.29;100.00;100978.31;6269975;20;2825436;-71
2022/10/28 02:40:14;;;;;;;;;32.00;19.67;;;;;11.10;100.00;100976.41;6273276;20;3615875;-71
2022/10/28 02:42:51;;;;;;;;;27.00;22.00;;;;;11.39;100.00;100985.91;6302819;20;2842999;-71
2022/10/28 02:45:31;;;;;;;;;30.00;24.50;;;;;11.49;100.00;100982.81;6272991;20;2847194;-71
2022/10/28 02:48:18;;;;;;;;;29.67;25.00;;;;;11.45;100.00;100984.75;6271187;20;2844085;-70
2022/10/28 02:51:01;;;;;;;;;26.33;19.67;;;;;11.40;100.00;100984.09;6301330;20;3566973;-72
2022/10/28 02:54:13;;;;;;;;;34.00;22.00;;;;;11.42;100.00;100976.81;6269746;20;2852333;-71
2022/10/28 02:57:06;;;;;;;;;23.50;20.00;;;;;11.30;100.00;100974.69;6303633;20;2828393;-70
2022/10/28 02:59:35;;;;;;;;;29.50;23.50;;;;;11.22;100.00;100977.72;6272212;20;2850384;-72
2022/10/28 03:02:04;;;;;;;;;31.00;22.00;;;;;11.21;100.00;100984.88;6271991;20;3563949;-70
2022/10/28 03:04:32;;;;;;;;;26.67;21.33;;;;;11.25;100.00;100990.16;6269894;20;3576315;-71
2022/10/28 03:07:02;;;;;;;;;36.00;24.67;;;;;11.26;100.00;100984.69;6268343;20;2859686;-70
2022/10/28 03:09:30;;;;;;;;;24.50;19.50;;;;;11.20;100.00;100991.22;6305290;20;2846125;-70
2022/10/28 03:11:59;;;;;;;;;24.33;18.67;;;;;11.21;100.00;100992.09;6272033;20;3563762;-70
2022/10/28 03:14:28;;;;;;;;;30.00;20.33;;;;;11.13;100.00;100975.41;6272037;20;2831588;-72
2022/10/28 03:16:56;;;;;;;;;23.00;19.00;;;;;11.12;100.00;100977.25;6304587;20;2829479;-71
2022/10/28 03:19:25;;;;;;;;;26.50;18.50;;;;;11.26;100.00;100975.75;6302456;20;2842998;-70
2022/10/28 03:21:53;;;;;;;;;23.33;17.67;;;;;11.21;100.00;100987.56;6271274;20;2829427;-71
2022/10/28 03:24:21;;;;;;;;;26.00;19.00;;;;;11.12;100.00;100981.75;6297831;20;2491951;-71
2022/10/28 03:26:50;;;;;;;;;27.00;20.50;;;;;11.19;100.00;100985.94;6274729;20;2824222;-71
2022/10/28 03:29:17;;;;;;;;;19.00;17.50;;;;;11.11;100.00;100988.03;6274044;20;2483752;-71
2022/10/28 03:31:45;;;;;;;;;17.00;10.00;;;;;11.18;100.00;100978.78;6277557;20;2802401;-71
2022/10/28 03:34:13;;;;;;;;;19.00;16.00;;;;;11.12;100.00;100974.56;6274521;20;2806567;-70
2022/10/28 03:36:41;;;;;;;;;26.00;17.00;;;;;11.14;100.00;100983.44;6275336;20;2839988;-70
2022/10/28 03:39:09;;;;;;;;;25.67;19.00;;;;;11.23;100.00;100982.16;6271749;20;2835727;-71
2022/10/28 03:41:37;;;;;;;;;21.00;19.50;;;;;11.23;100.00;100978.59;6299197;20;2487845;-71
2022/10/28 03:44:06;;;;;;;;;19.00;15.33;;;;;11.42;100.00;100979.53;6270226;20;3531577;-70
2022/10/28 03:46:34;;;;;;;;;26.67;18.00;;;;;11.32;100.00;100978.16;6272183;20;3554412;-72
2022/10/28 03:49:03;;;;;;;;;23.00;20.50;;;;;11.09;100.00;100985.44;6267798;20;2828422;-70
2022/10/28 03:51:32;;;;;;;;;24.00;18.67;;;;;11.27;100.00;100980.19;6271894;20;3555555;-70
2022/10/28 03:54:00;;;;;;;;;33.00;21.00;;;;;11.28;100.00;100974.75;6270371;20;2487799;-70
2022/10/28 03:56:28;;;;;;;;;32.00;24.50;;;;;11.17;100.00;100972.53;6273866;20;2847246;-71
2022/10/28 03:58:57;;;;;;;;;27.00;19.50;;;;;11.18;100.00;100976.09;6270529;20;2855604;-71
2022/10/28 04:01:26;;;;;;;;;30.00;22.33;;;;;11.24;100.00;100975.81;6266964;20;2848252;-70
2022/10/28 04:03:54;;;;;;;;;27.00;20.50;;;;;11.29;100.00;100970.25;6300541;20;2479523;-70
2022/10/28 04:06:22;;;;;;;;;21.50;20.00;;;;;11.26;100.00;100968.56;6266935;20;2483737;-71
2022/10/28 04:08:50;;;;;;;;;24.00;18.00;;;;;11.36;100.00;100977.09;6260575;20;2500325;-70
2022/10/28 04:11:18;;;;;;;;;28.00;19.00;;;;;11.06;100.00;100969.44;6268064;20;2496113;-70
2022/10/28 04:13:46;;;;;;;;;29.50;21.00;;;;;11.14;100.00;100967.31;6270786;20;2835743;-71
2022/10/28 04:16:15;;;;;;;;;27.50;23.00;;;;;11.32;100.00;100970.09;6274998;20;2829422;-70
2022/10/28 04:18:42;;;;;;;;;26.50;21.50;;;;;11.19;100.00;100973.34;6274016;20;2500399;-70
2022/10/28 04:21:13;;;;;;;;;23.00;18.00;;;;;11.15;100.00;100960.97;6265984;20;2483614;-70
2022/10/28 04:23:41;;;;;;;;;23.00;20.00;;;;;11.31;100.00;100965.69;6273787;20;2836754;-70
2022/10/28 04:26:10;;;;;;;;;31.67;21.67;;;;;11.05;100.00;100966.81;6271385;20;2483586;-71
2022/10/28 04:28:39;;;;;;;;;25.33;20.00;;;;;10.95;100.00;100955.56;6303861;20;3562760;-70
2022/10/28 04:31:08;;;;;;;;;25.00;19.00;;;;;11.04;100.00;100963.25;6270592;20;2483679;-70
2022/10/28 04:33:36;;;;;;;;;19.50;16.50;;;;;11.13;100.00;100968.22;6273787;20;2808672;-70
2022/10/28 04:36:05;;;;;;;;;24.50;20.50;;;;;11.03;100.00;100926.56;6268431;20;2828443;-70
2022/10/28 04:38:33;;;;;;;;;33.50;22.50;;;;;11.18;100.00;100963.53;6271472;20;2854581;-71
2022/10/28 04:41:01;;;;;;;;;23.00;18.00;;;;;11.08;100.00;100959.47;6268396;20;2475305;-69
2022/10/28 04:43:29;;;;;;;;;25.00;18.33;;;;;11.23;100.00;100957.09;6274014;20;2831559;-71
2022/10/28 04:46:01;;;;;;;;;21.50;18.50;;;;;11.28;100.00;100957.75;6304003;20;2815022;-71
2022/10/28 04:48:28;;;;;;;;;31.00;22.00;;;;;11.12;100.00;100949.50;6271148;20;2496178;-70
2022/10/28 04:50:57;;;;;;;;;25.50;18.50;;;;;11.26;100.00;100956.94;6267269;20;2483676;-70
2022/10/28 04:53:26;;;;;;;;;31.00;22.00;;;;;11.16;100.00;100954.69;6267319;20;2864860;-70
2022/10/28 04:55:58;;;;;;;;;29.50;22.50;;;;;11.19;100.00;100951.84;6270617;20;2830452;-70
2022/10/28 04:58:27;;;;;;;;;22.33;21.00;;;;;11.26;100.00;100948.88;6266327;20;3573318;-70
2022/10/28 05:01:07;;;;;;;;;26.33;21.33;;;;;11.23;100.00;100951.72;6268538;20;2844059;-70
2022/10/28 05:03:36;;;;;;;;;23.00;21.50;;;;;11.15;100.00;100944.84;6299739;20;2839863;-69
2022/10/28 05:06:06;;;;;;;;;50.00;32.00;;;;;10.97;100.00;100949.19;6269485;20;3622119;-70
2022/10/28 05:08:34;;;;;;;;;44.33;34.00;;;;;11.18;100.00;100949.22;6307214;20;3605459;-71
2022/10/28 05:11:03;;;;;;;;;39.00;27.67;;;;;11.02;100.00;100942.75;6270277;20;3594124;-70
2022/10/28 05:13:33;;;;;;;;;45.00;34.00;;;;;11.11;100.00;100959.38;6269911;20;3613822;-70
2022/10/28 05:16:01;;;;;;;;;31.67;25.00;;;;;11.20;100.00;100945.50;6302710;20;3597608;-70
2022/10/28 05:18:29;;;;;;;;;27.00;21.00;;;;;11.29;100.00;100938.84;6267404;20;2487781;-70
2022/10/28 05:20:59;;;;;;;;;35.33;23.67;;;;;11.32;100.00;100941.44;6266716;20;3616935;-70
2022/10/28 05:23:27;;;;;;;;;18.00;13.50;;;;;11.14;100.00;100939.56;6304538;20;2802384;-70
2022/10/28 05:25:59;;;;;;;;;32.67;25.00;;;;;11.17;100.00;100937.59;6270273;20;2839069;-70
2022/10/28 05:28:28;;;;;;;;;33.67;27.33;;;;;11.35;100.00;100941.28;6299374;20;3595112;-70
2022/10/28 05:30:57;;;;;;;;;30.67;20.67;;;;;11.13;100.00;100945.84;6301132;20;3576329;-71
2022/10/28 05:33:26;;;;;;;;;31.50;19.00;;;;;11.14;100.00;100942.25;6300810;20;2849261;-70
2022/10/28 05:35:54;;;;;;;;;32.67;22.33;;;;;11.19;100.00;100946.47;6266162;20;3599173;-70
2022/10/28 05:38:23;;;;;;;;;28.00;21.00;;;;;11.13;100.00;100945.84;6302970;20;3570211;-70
2022/10/28 05:40:51;;;;;;;;;23.50;21.50;;;;;11.31;100.00;100949.56;6268318;20;2483609;-71
2022/10/28 05:43:19;;;;;;;;;29.00;22.00;;;;;11.28;100.00;100933.56;6268100;20;2853445;-71
2022/10/28 05:45:55;;;;;;;;;26.00;21.50;;;;;11.10;100.00;100954.06;6268819;20;2483779;-70
2022/10/28 05:48:24;;;;;;;;;32.00;20.50;;;;;11.10;100.00;100954.91;6271257;20;2843118;-70
2022/10/28 05:50:52;;;;;;;;;30.00;22.50;;;;;11.23;100.00;100952.56;6273102;20;2491985;-71
2022/10/28 05:53:21;;;;;;;;;28.00;22.50;;;;;11.03;100.00;100961.50;6273221;20;2845191;-71
2022/10/28 05:55:49;;;;;;;;;29.00;24.50;;;;;11.19;100.00;100957.22;6275122;20;2850321;-70
2022/10/28 05:58:18;;;;;;;;;26.50;21.00;;;;;11.20;100.00;100961.66;6272880;20;2835737;-70
2022/10/28 06:00:47;;;;;;;;;32.67;28.00;;;;;11.27;100.00;100964.97;6273808;20;3596155;-71
2022/10/28 06:03:17;;;;;;;;;43.00;32.00;;;;;11.23;100.00;100974.09;6309211;20;3597230;-70
2022/10/28 06:05:46;;;;;;;;;39.00;27.00;;;;;11.20;100.00;100964.34;6307517;20;2666932;-70
2022/10/28 06:08:14;;;;;;;;;33.33;26.00;;;;;11.29;100.00;100967.56;6310679;20;3607539;-70
2022/10/28 06:10:51;;;;;;;;;27.00;20.50;;;;;11.41;100.00;100967.03;6277604;20;2840136;-70
2022/10/28 06:13:24;;;;;;;;;43.33;33.67;;;;;11.42;100.00;100979.53;6274297;20;3619030;-71
2022/10/28 06:15:56;;;;;;;;;30.00;24.33;;;;;11.46;100.00;100981.16;6306284;20;2854553;-71
2022/10/28 06:18:25;;;;;;;;;34.67;28.33;;;;;11.58;100.00;100983.25;6306582;20;3601269;-71
2022/10/28 06:20:57;;;;;;;;;33.00;25.67;;;;;11.43;100.00;100979.47;6276119;20;3600277;-70
2022/10/28 06:23:28;;;;;;;;;26.50;22.00;;;;;11.31;100.00;100982.69;6273945;20;2842991;-70
2022/10/28 06:26:02;;;;;;;;;27.50;22.50;;;;;11.32;100.00;100978.16;6273399;20;2838834;-71
2022/10/28 06:28:32;;;;;;;;;29.00;21.00;;;;;11.32;100.00;100983.56;6274033;20;2845080;-70
2022/10/28 06:31:08;;;;;;;;;23.00;19.00;;;;;11.27;100.00;100985.56;6275469;20;2829452;-70
2022/10/28 06:33:38;;;;;;;;;28.00;20.33;;;;;11.48;100.00;100987.34;6274394;20;2864936;-71
2022/10/28 06:36:07;;;;;;;;;36.00;26.00;;;;;11.39;100.00;100993.09;6304739;20;3601299;-69
2022/10/28 06:38:36;;;;;;;;;26.50;21.00;;;;;11.33;100.00;100991.56;6275954;20;2854472;-70
2022/10/28 06:41:04;;;;;;;;;24.00;21.00;;;;;11.48;100.00;100995.41;6270625;20;2836741;-70
2022/10/28 06:43:33;;;;;;;;;28.33;19.33;;;;;11.32;100.00;100987.13;6276181;20;2837777;-70
2022/10/28 06:46:05;;;;;;;;;27.67;22.67;;;;;11.49;100.00;100997.13;6307851;20;3588818;-71
2022/10/28 06:48:34;;;;;;;;;22.33;18.00;;;;;11.42;100.00;100991.13;6272996;20;3562788;-70
2022/10/28 06:51:02;;;;;;;;;26.50;23.00;;;;;11.53;100.00;101000.56;6270433;20;2849247;-71
2022/10/28 06:53:30;;;;;;;;;26.00;19.00;;;;;11.61;100.00;100993.91;6274538;20;2831601;-70
2022/10/28 06:56:00;;;;;;;;;34.33;31.00;;;;;11.63;100.00;100992.00;6272594;20;3607601;-71
2022/10/28 06:58:28;;;;;;;;;35.00;29.00;;;;;11.71;100.00;100996.16;6309482;20;3587779;-72
2022/10/28 07:01:06;;;;;;;;;27.00;20.33;;;;;11.53;100.00;100988.00;6271752;20;2840920;-70
2022/10/28 07:03:34;;;;;;;;;27.00;20.67;;;;;11.53;100.00;100998.75;6304162;20;3581485;-71
2022/10/28 07:06:07;;;;;;;;;33.33;26.33;;;;;11.45;100.00;100992.81;6275463;20;2860733;-71
2022/10/28 07:08:35;;;;;;;;;40.50;27.00;;;;;11.54;100.00;100991.56;6303441;20;2866952;-70
2022/10/28 07:11:04;;;;;;;;;33.00;22.67;;;;;11.65;100.00;100998.19;6275310;20;3597200;-70
2022/10/28 07:13:33;;;;;;;;;27.00;22.50;;;;;11.68;100.00;100996.31;6269897;20;2840892;-70
2022/10/28 07:16:02;;;;;;;;;46.00;31.00;;;;;11.60;100.00;101000.22;6278913;20;3608617;-70
2022/10/28 07:18:30;;;;;;;;;26.50;20.00;;;;;11.57;100.00;101004.88;6273958;20;2832598;-70
2022/10/28 07:21:00;;;;;;;;;34.00;26.67;;;;;11.57;100.00;100994.13;6274670;20;3581534;-70
2022/10/28 07:23:33;;;;;;;;;39.67;31.00;;;;;11.65;100.00;101006.25;6268804;20;3625304;-69
2022/10/28 07:26:02;;;;;;;;;38.33;28.33;;;;;11.87;100.00;101002.63;6307323;20;3587826;-70
2022/10/28 07:28:31;;;;;;;;;23.00;17.50;;;;;11.52;100.00;100997.00;6272748;20;2831596;-70
2022/10/28 07:31:02;;;;;;;;;29.67;19.00;;;;;11.55;100.00;101012.13;6273833;20;2864503;-69
2022/10/28 07:33:30;;;;;;;;;26.00;22.00;;;;;11.45;100.00;101006.28;6302591;20;2496217;-69
2022/10/28 07:36:01;;;;;;;;;24.50;23.00;;;;;11.36;100.00;101006.69;6277380;20;2846165;-70
2022/10/28 07:38:29;;;;;;;;;27.00;17.50;;;;;11.70;100.00;101013.28;6274296;20;2848401;-70
2022/10/28 07:40:58;;;;;;;;;28.33;20.67;;;;;11.62;100.00;101014.47;6272216;20;3559630;-70
2022/10/28 07:43:26;;;;;;;;;24.67;19.00;;;;;11.63;100.00;101026.09;6276381;20;3547146;-69
2022/10/28 07:45:57;;;;;;;;;23.50;20.00;;;;;11.60;100.00;101021.72;6270537;20;2836726;-70
2022/10/28 07:48:25;;;;;;;;;31.00;23.50;;;;;11.88;100.00;101012.47;6272561;20;2849240;-69
2022/10/28 07:50:54;;;;;;;;;20.00;18.50;;;;;11.92;100.00;101016.75;6272290;20;2835827;-70
2022/10/28 07:53:23;;;;;;;;;21.00;18.00;;;;;11.94;100.00;101022.94;6272973;20;2821141;-69
2022/10/28 07:56:08;;;;;;;;;33.33;28.67;;;;;11.99;100.00;101018.22;6276697;20;2847136;-70
2022/10/28 07:58:37;;;;;;;;;27.50;21.00;;;;;11.87;100.00;101016.09;6307045;20;2844076;-71
2022/10/28 08:01:09;;;;;;;;;1421.00;863.00;;;;;11.97;100.00;101024.63;6106474;20;9118922;-69
2022/10/28 08:03:37;;;;;;;;;84.50;60.00;;;;;11.86;100.00;101020.59;6269196;20;1933685;-70
2022/10/28 08:06:17;;;;;;;;;40.67;29.33;;;;;11.85;100.00;101023.34;6272795;20;3638798;-70
2022/10/28 08:08:52;;;;;;;;;23.00;19.50;;;;;11.92;100.00;101010.50;6272665;20;2827418;-69
2022/10/28 08:11:23;;;;;;;;;31.33;29.33;;;;;11.98;100.00;101020.97;6273278;20;3589905;-70
2022/10/28 08:13:54;;;;;;;;;30.33;25.67;;;;;12.01;100.00;101005.56;6309196;20;3585765;-71
2022/10/28 08:16:24;;;;;;;;;34.33;27.00;;;;;11.82;100.00;101016.28;6273314;20;2857584;-71
2022/10/28 08:18:53;;;;;;;;;28.50;22.50;;;;;11.82;100.00;101015.38;6304036;20;2831569;-69
2022/10/28 08:21:23;;;;;;;;;26.33;23.33;;;;;11.86;100.00;101028.69;6274371;20;2848281;-70
2022/10/28 08:23:54;;;;;;;;;30.33;26.00;;;;;11.99;100.00;101020.91;6305326;20;3599280;-69
2022/10/28 08:26:23;;;;;;;;;29.00;23.33;;;;;12.08;100.00;101017.81;6268457;20;2851315;-70
2022/10/28 08:28:52;;;;;;;;;30.67;24.00;;;;;11.92;100.00;101000.59;6309135;20;3587793;-71
2022/10/28 08:31:21;;;;;;;;;30.50;26.00;;;;;11.97;100.00;101009.34;6274370;20;2864904;-71
2022/10/28 08:33:48;;;;;;;;;18.50;12.50;;;;;11.80;100.00;101006.53;6275272;20;2821094;-71
2022/10/28 08:36:18;;;;;;;;;31.33;20.67;;;;;11.91;100.00;101009.63;6271679;20;3599299;-70
2022/10/28 08:38:47;;;;;;;;;32.33;25.33;;;;;12.25;100.00;101010.75;6308771;20;3598192;-71
2022/10/28 08:41:46;;;;;;;;;32.00;24.67;;;;;12.41;100.00;101008.22;6274833;20;2855653;-69
2022/10/28 08:44:53;;;;;;;;;39.33;32.00;;;;;11.94;100.00;101004.09;6303732;20;3607065;-69
2022/10/28 08:47:38;;;;;;;;;39.67;32.67;;;;;12.31;100.00;101010.47;6276463;20;3593121;-69
2022/10/28 08:50:22;;;;;;;;;35.00;24.50;;;;;12.28;100.00;101007.91;6269735;20;2872163;-69
2022/10/28 08:53:18;;;;;;;;;36.67;25.67;;;;;12.25;100.00;101003.56;6273154;20;3599252;-72
2022/10/28 08:55:51;;;;;;;;;39.67;29.33;;;;;12.10;100.00;101008.78;6276329;20;3581511;-71
2022/10/28 08:58:32;;;;;;;;;33.33;27.00;;;;;12.10;100.00;101014.16;6272282;20;2853532;-71
2022/10/28 09:01:04;;;;;;;;;40.00;28.67;;;;;12.38;100.00;101009.22;6303381;20;3600318;-71
2022/10/28 09:03:41;;;;;;;;;33.67;31.00;;;;;12.15;100.00;101012.13;6308793;20;3583735;-70
2022/10/28 09:06:10;;;;;;;;;42.33;34.00;;;;;12.29;100.00;101004.25;6277062;20;3597178;-70
2022/10/28 09:08:46;;;;;;;;;42.33;31.33;;;;;12.15;100.00;101018.38;6270730;20;3602365;-70
2022/10/28 09:12:27;;;;;;;;;42.00;33.67;;;;;12.20;100.00;101015.50;6305277;20;3601309;-72
2022/10/28 09:15:51;;;;;;;;;41.00;31.67;;;;;12.42;100.00;101026.97;6272508;20;3602416;-71
2022/10/28 09:18:41;;;;;;;;;36.50;26.00;;;;;12.34;100.00;101023.78;6270176;20;2670534;-71
2022/10/28 09:21:29;;;;;;;;;49.67;34.00;;;;;12.05;100.00;101001.78;6272851;20;3626447;-71
2022/10/28 09:24:37;;;;;;;;;42.67;31.33;;;;;12.33;100.00;101005.00;6305682;20;2846189;-70
2022/10/28 09:27:51;;;;;;;;;39.00;30.33;;;;;12.34;100.00;101009.44;6314195;20;3607578;-71
2022/10/28 09:31:02;;;;;;;;;46.67;35.33;;;;;12.59;100.00;101017.22;6278277;20;3595080;-71
2022/10/28 09:33:46;;;;;;;;;38.00;32.00;;;;;12.57;100.00;101028.06;6278780;20;3612816;-71
2022/10/28 09:37:20;;;;;;;;;42.67;34.00;;;;;12.54;100.00;101024.66;6309557;20;3597140;-69
2022/10/28 09:40:11;;;;;;;;;48.00;36.67;;;;;12.49;100.00;101024.88;6275996;20;3593994;-70
2022/10/28 09:43:19;;;;;;;;;47.75;32.50;;;;;12.39;100.00;101018.19;6309030;20;3634743;-71
2022/10/28 09:45:57;;;;;;;;;41.33;34.00;;;;;12.38;100.00;101025.38;6309529;20;3596137;-71
2022/10/28 09:48:36;;;;;;;;;52.00;36.33;;;;;12.53;100.00;101021.06;6307460;20;3614858;-70
2022/10/28 09:51:06;;;;;;;;;47.00;37.33;;;;;12.69;100.00;101022.09;6307173;20;2860770;-70
2022/10/28 09:53:50;;;;;;;;;46.00;34.00;;;;;12.46;100.00;101022.34;6312551;20;3607636;-70
2022/10/28 09:56:19;;;;;;;;;45.00;34.00;;;;;12.45;100.00;101017.88;6281108;20;3620112;-70
2022/10/28 09:58:48;;;;;;;;;47.00;34.33;;;;;12.42;100.00;101016.19;6280281;20;3611738;-71
2022/10/28 10:01:18;;;;;;;;;42.00;34.00;;;;;12.46;100.00;101012.44;6281743;20;3610688;-70
2022/10/28 10:03:49;;;;;;;;;44.00;32.67;;;;;12.50;100.00;101002.38;6275262;20;3605523;-72
2022/10/28 10:06:38;;;;;;;;;47.33;34.67;;;;;12.66;100.00;101019.53;6276807;20;3615857;-71
2022/10/28 10:09:25;;;;;;;;;47.00;36.00;;;;;12.62;100.00;101017.94;6310738;20;3617966;-72
2022/10/28 10:12:09;;;;;;;;;50.63;35.88;;;;;12.75;100.00;101012.84;6293398;20;3612979;-70
2022/10/28 10:14:48;;;;;;;;;45.00;34.33;;;;;12.68;100.00;101011.38;6275758;20;3597144;-70
2022/10/28 10:17:43;;;;;;;;;45.67;34.67;;;;;12.65;100.00;101007.00;6309795;20;3614853;-69
2022/10/28 10:20:20;;;;;;;;;36.67;30.33;;;;;12.80;100.00;101024.25;6272544;20;3589882;-69
2022/10/28 10:22:49;;;;;;;;;48.00;32.67;;;;;12.65;100.00;101022.31;6310638;20;3619012;-70
2022/10/28 10:25:17;;;;;;;;;44.67;33.33;;;;;12.77;100.00;101021.72;6278224;20;3614832;-70
2022/10/28 10:28:14;;;;;;;;;39.33;33.00;;;;;12.89;100.00;101023.78;6279897;20;3594034;-70
2022/10/28 10:31:01;;;;;;;;;46.67;33.00;;;;;12.85;100.00;101022.22;6277690;20;3608698;-70
2022/10/28 10:33:35;;;;;;;;;40.67;33.00;;;;;12.74;100.00;101022.75;6307137;20;3612184;-69
2022/10/28 10:36:16;;;;;;;;;41.00;32.00;;;;;12.87;100.00;101012.19;6277501;20;2865997;-71
2022/10/28 10:38:55;;;;;;;;;38.67;30.00;;;;;12.70;100.00;101020.25;6307147;20;3636758;-70
2022/10/28 10:41:40;;;;;;;;;43.00;34.67;;;;;12.83;100.00;101007.94;6307171;20;3606613;-69
2022/10/28 10:44:21;;;;;;;;;50.00;36.33;;;;;12.83;100.00;101021.41;6275293;20;3608684;-71
2022/10/28 10:46:59;;;;;;;;;40.67;33.67;;;;;13.05;100.00;101014.94;6311822;20;3603377;-70
2022/10/28 10:49:35;;;;;;;;;50.00;39.33;;;;;13.16;100.00;101023.34;6276399;20;3610689;-72
2022/10/28 10:52:24;;;;;;;;;46.33;36.00;;;;;12.74;100.00;101013.75;6309963;20;3608615;-72
2022/10/28 10:55:06;;;;;;;;;41.67;34.00;;;;;12.75;100.00;101018.22;6275520;20;2867112;-70
2022/10/28 10:57:35;;;;;;;;;41.67;34.00;;;;;13.07;100.00;101013.91;6307389;20;3589921;-71
2022/10/28 11:00:06;;;;;;;;;35.67;31.33;;;;;12.92;100.00;101020.94;6275899;20;3608603;-71
2022/10/28 11:02:40;;;;;;;;;45.33;34.00;;;;;12.77;100.00;101016.31;6308996;20;3602361;-70
2022/10/28 11:05:10;;;;;;;;;42.00;31.33;;;;;12.60;100.00;100997.41;6278874;20;3603349;-70
2022/10/28 11:07:47;;;;;;;;;40.00;34.00;;;;;12.83;100.00;101010.63;6277626;20;3605464;-71
2022/10/28 11:10:28;;;;;;;;;39.00;30.33;;;;;12.81;100.00;101011.66;6275799;20;3616936;-71
2022/10/28 11:13:07;;;;;;;;;41.00;33.00;;;;;12.81;100.00;101007.13;6307778;20;3608610;-70
2022/10/28 11:15:36;;;;;;;;;48.67;33.00;;;;;12.76;100.00;101011.00;6277070;20;3624243;-69
2022/10/28 11:18:10;;;;;;;;;40.67;34.00;;;;;12.89;100.00;100999.53;6280744;20;3596095;-72
2022/10/28 11:21:25;;;;;;;;;46.67;33.67;;;;;12.81;100.00;100999.03;6277481;20;2862018;-71
2022/10/28 11:24:37;;;;;;;;;41.67;34.67;;;;;12.98;100.00;100986.53;6307574;20;3598320;-69
2022/10/28 11:27:40;;;;;;;;;37.33;30.00;;;;;13.02;100.00;100978.22;6278497;20;3607655;-72
2022/10/28 11:30:18;;;;;;;;;42.33;33.33;;;;;12.96;100.00;100979.41;6274708;20;3614813;-68